createdAt,value
2024-02-21T00:03:35.308Z,238.9
2024-02-21T00:09:07.019Z,245.0
2024-02-21T00:14:38.846Z,229.8
2024-02-21T00:20:13.409Z,224.0
2024-02-21T00:25:41.807Z,242.6
2024-02-21T00:31:13.484Z,230.3
2024-02-21T00:36:45.056Z,230.7
2024-02-21T00:42:17.391Z,267.2
2024-02-21T00:47:52.847Z,234.1
2024-02-21T00:53:24.472Z,250.8
2024-02-21T00:58:56.052Z,247.9
2024-02-21T01:04:27.545Z,261.2
2024-02-21T01:09:59.380Z,234.2
2024-02-21T01:15:30.924Z,257.3
2024-02-21T01:21:03.025Z,219.7
2024-02-21T01:26:34.124Z,244.7
2024-02-21T01:32:06.167Z,233.3
2024-02-21T01:37:37.386Z,234.4
2024-02-21T01:43:08.937Z,187.4
2024-02-21T01:48:47.888Z,230.4
2024-02-21T01:54:18.922Z,230.0
2024-02-21T01:59:50.536Z,201.2
2024-02-21T02:05:21.848Z,200.1
2024-02-21T02:10:54.030Z,169.2
2024-02-21T02:16:25.525Z,218.3
2024-02-21T02:21:56.819Z,237.3
2024-02-21T02:27:35.448Z,270.6
2024-02-21T02:33:07.230Z,240.7
2024-02-21T02:38:38.524Z,240.1
2024-02-21T02:44:10.285Z,214.9
2024-02-21T02:49:48.386Z,253.9
2024-02-21T02:55:20.223Z,294.9
2024-02-21T03:00:51.696Z,310.4
2024-02-21T03:06:23.284Z,304.3
2024-02-21T03:11:54.648Z,284.1
2024-02-21T03:17:26.280Z,296.9
2024-02-21T03:22:58.014Z,278.8
2024-02-21T03:28:29.619Z,276.5
2024-02-21T03:34:01.237Z,258.4
2024-02-21T03:39:32.954Z,271.9
2024-02-21T03:45:04.410Z,243.9
2024-02-21T03:50:40.706Z,238.0
2024-02-21T03:56:12.212Z,254.2
2024-02-21T04:01:43.879Z,243.8
2024-02-21T04:07:15.381Z,215.4
2024-02-21T04:12:46.996Z,231.7
2024-02-21T04:18:18.876Z,207.7
2024-02-21T04:23:50.237Z,224.5
2024-02-21T04:29:21.853Z,190.6
2024-02-21T04:34:54.004Z,202.2
2024-02-21T04:40:25.179Z,169.2
2024-02-21T04:45:56.724Z,168.3
2024-02-21T04:51:36.238Z,131.9
2024-02-21T04:57:06.407Z,114.7
2024-02-21T05:02:38.024Z,115.1
2024-02-21T05:08:09.831Z,91.6
2024-02-21T05:13:41.421Z,77.4
2024-02-21T05:19:13.277Z,80.1
2024-02-21T05:24:44.816Z,85.6
2024-02-21T05:30:16.197Z,123.8
2024-02-21T05:35:47.836Z,131.7
2024-02-21T05:41:19.484Z,159.6
2024-02-21T05:46:51.283Z,169.0
2024-02-21T05:52:27.187Z,175.9
2024-02-21T05:57:58.926Z,171.8
2024-02-21T06:03:30.797Z,171.7
2024-02-21T06:09:02.202Z,160.0
2024-02-21T06:14:33.949Z,134.9
2024-02-21T06:20:05.338Z,80.6
2024-02-21T06:25:37.750Z,43.7
2024-02-21T06:31:08.878Z,69.0
2024-02-21T06:36:40.168Z,77.3
2024-02-21T06:42:11.935Z,78.5
2024-02-21T06:47:43.710Z,53.9
2024-02-21T06:53:19.419Z,100.0
2024-02-21T06:58:51.401Z,126.2
2024-02-21T07:04:22.725Z,125.2
2024-02-21T07:09:55.197Z,148.1
2024-02-21T07:15:26.168Z,157.5
2024-02-21T07:20:57.602Z,150.4
2024-02-21T07:26:29.229Z,109.0
2024-02-21T07:32:01.763Z,176.8
2024-02-21T07:37:33.344Z,182.5
2024-02-21T07:43:04.087Z,230.4
2024-02-21T07:48:36.519Z,176.6
2024-02-21T07:54:15.361Z,159.5
2024-02-21T07:59:45.653Z,147.7
2024-02-21T08:05:17.136Z,174.9
2024-02-21T08:10:48.885Z,268.7
2024-02-21T08:16:20.402Z,234.7
2024-02-21T08:22:17.221Z,217.1
2024-02-21T08:27:48.790Z,318.8
2024-02-21T08:33:20.527Z,321.2
2024-02-21T08:38:51.863Z,337.6
2024-02-21T08:44:23.476Z,284.2
2024-02-21T08:49:55.699Z,340.0
2024-02-21T08:55:31.238Z,306.3
2024-02-21T09:01:02.727Z,252.2
2024-02-21T09:06:34.915Z,264.4
2024-02-21T09:12:06.375Z,177.6
2024-02-21T09:17:37.845Z,179.9
2024-02-21T09:23:09.312Z,222.3
2024-02-21T09:28:40.911Z,209.2
2024-02-21T09:34:12.884Z,202.9
2024-02-21T09:39:44.131Z,231.3
2024-02-21T09:45:16.318Z,203.2
2024-02-21T09:50:47.377Z,155.1
2024-02-21T09:56:23.610Z,137.9
2024-02-21T10:01:55.486Z,116.5
2024-02-21T10:07:26.696Z,105.0
2024-02-21T10:12:58.277Z,84.1
2024-02-21T10:18:30.284Z,35.3
2024-02-21T10:24:01.651Z,35.4
2024-02-21T10:29:33.363Z,34.4
2024-02-21T10:35:04.785Z,48.6
2024-02-21T10:40:36.552Z,69.8
2024-02-21T10:46:08.145Z,53.6
2024-02-21T10:51:39.714Z,29.0
2024-02-21T10:57:15.666Z,35.3
2024-02-21T11:02:47.449Z,38.0
2024-02-21T11:08:19.180Z,37.4
2024-02-21T11:13:50.601Z,34.8
2024-02-21T11:19:22.306Z,24.5
2024-02-21T11:24:54.104Z,23.5
2024-02-21T11:30:25.712Z,16.3
2024-02-21T11:35:57.080Z,13.4
2024-02-21T11:41:28.768Z,29.8
2024-02-21T11:47:00.783Z,20.9
2024-02-21T11:52:32.358Z,15.8
2024-02-21T11:58:08.228Z,25.8
2024-02-21T12:03:39.613Z,30.2
2024-02-21T12:09:11.231Z,15.8
2024-02-21T12:14:43.111Z,18.7
2024-02-21T12:20:15.514Z,14.8
2024-02-21T12:25:46.220Z,13.6
2024-02-21T12:31:17.914Z,14.6
2024-02-21T12:36:49.434Z,12.2
2024-02-21T12:42:21.000Z,9.1
2024-02-21T12:47:52.859Z,14.9
2024-02-21T12:53:26.407Z,16.2
2024-02-21T12:59:00.361Z,19.3
2024-02-21T13:04:32.170Z,9.6
2024-02-21T13:10:03.511Z,16.8
2024-02-21T13:15:35.364Z,10.4
2024-02-21T13:21:06.814Z,25.0
2024-02-21T13:26:38.705Z,33.3
2024-02-21T13:32:10.355Z,36.5
2024-02-21T13:37:41.731Z,25.4
2024-02-21T13:43:13.359Z,20.1
2024-02-21T13:48:45.204Z,20.6
2024-02-21T13:54:17.278Z,16.8
2024-02-21T13:59:52.610Z,32.3
2024-02-21T14:05:24.472Z,43.8
2024-02-21T14:10:55.937Z,113.0
2024-02-21T14:16:28.241Z,45.5
2024-02-21T14:21:59.334Z,36.0
2024-02-21T14:27:30.821Z,46.5
2024-02-21T14:33:02.593Z,60.1
2024-02-21T14:38:34.041Z,65.1
2024-02-21T14:44:05.873Z,69.3
2024-02-21T14:49:37.570Z,56.5
2024-02-21T14:55:08.953Z,119.4
2024-02-21T15:00:45.105Z,157.8
2024-02-21T15:06:16.658Z,162.6
2024-02-21T15:11:48.384Z,189.7
2024-02-21T15:17:20.145Z,267.5
2024-02-21T15:22:51.672Z,293.6
2024-02-21T15:28:23.165Z,328.0
2024-02-21T15:33:55.182Z,343.9
2024-02-21T15:39:26.632Z,321.2
2024-02-21T15:44:58.222Z,333.4
2024-02-21T15:50:29.861Z,264.0
2024-02-21T15:56:01.507Z,250.0
2024-02-21T16:01:37.370Z,251.5
2024-02-21T16:07:09.232Z,271.9
2024-02-21T16:12:40.789Z,425.3
2024-02-21T16:18:12.252Z,253.7
2024-02-21T16:23:43.784Z,255.1
2024-02-21T16:29:15.450Z,252.8
2024-02-21T16:34:47.344Z,265.1
2024-02-21T16:40:19.214Z,220.4
2024-02-21T16:45:50.332Z,211.9
2024-02-21T16:51:22.300Z,248.0
2024-02-21T16:56:53.649Z,249.2
2024-02-21T17:02:32.943Z,233.7
2024-02-21T17:08:03.934Z,260.4
2024-02-21T17:13:35.892Z,259.1
2024-02-21T17:19:07.266Z,269.4
2024-02-21T17:24:38.085Z,209.2
2024-02-21T17:30:09.949Z,184.1
2024-02-21T17:35:41.555Z,238.7
2024-02-21T17:41:13.018Z,204.2
2024-02-21T17:46:44.984Z,219.4
2024-02-21T17:52:16.936Z,235.5
2024-02-21T17:57:48.049Z,221.2
2024-02-21T18:03:23.963Z,216.8
2024-02-21T18:08:55.553Z,229.6
2024-02-21T18:14:27.137Z,213.0
2024-02-21T18:20:00.723Z,239.5
2024-02-21T18:25:30.539Z,230.8
2024-02-21T18:31:02.766Z,220.7
2024-02-21T18:36:33.959Z,248.0
2024-02-21T18:42:06.558Z,276.3
2024-02-21T18:47:37.037Z,340.6
2024-02-21T18:53:08.806Z,478.1
2024-02-21T18:58:40.521Z,322.5
2024-02-21T19:04:16.518Z,263.7
2024-02-21T19:09:48.299Z,54.7
2024-02-21T19:15:19.930Z,253.9
2024-02-21T19:20:51.385Z,232.1
2024-02-21T19:26:22.936Z,393.5
2024-02-21T19:31:54.601Z,181.5
2024-02-21T19:37:27.205Z,294.5
2024-02-21T19:42:57.760Z,235.4
2024-02-21T19:48:29.348Z,345.5
2024-02-21T19:54:05.868Z,280.5
2024-02-21T19:59:32.519Z,218.9
2024-02-21T20:05:08.588Z,245.8
2024-02-21T20:10:40.599Z,204.5
2024-02-21T20:16:11.798Z,238.6
2024-02-21T20:21:43.616Z,217.4
2024-02-21T20:27:15.157Z,254.6
2024-02-21T20:32:47.087Z,181.1
2024-02-21T20:38:18.494Z,268.6
2024-02-21T20:43:49.956Z,224.6
2024-02-21T20:49:21.602Z,277.5
2024-02-21T20:54:53.393Z,201.3
2024-02-21T21:00:24.836Z,161.5
2024-02-21T21:06:01.620Z,244.3
2024-02-21T21:11:38.402Z,238.4
2024-02-21T21:17:04.158Z,219.4
2024-02-21T21:22:35.795Z,243.4
2024-02-21T21:28:07.546Z,203.8
2024-02-21T21:33:39.097Z,247.8
2024-02-21T21:39:10.886Z,342.6
2024-02-21T21:44:42.292Z,152.4
2024-02-21T21:50:14.123Z,301.1
2024-02-21T21:55:45.697Z,261.0
2024-02-21T22:01:17.388Z,319.0
2024-02-21T22:06:55.243Z,91.5
2024-02-21T22:12:27.264Z,195.0
2024-02-21T22:17:58.725Z,245.9
2024-02-21T22:23:30.297Z,282.4
2024-02-21T22:29:01.783Z,252.4
2024-02-21T22:34:33.660Z,240.6
2024-02-21T22:40:05.004Z,256.0
2024-02-21T22:45:36.600Z,252.9
2024-02-21T22:51:08.483Z,293.7
2024-02-21T22:56:40.096Z,288.6
2024-02-21T23:02:11.841Z,247.3
2024-02-21T23:07:47.752Z,274.1
2024-02-21T23:13:19.147Z,153.6
2024-02-21T23:18:50.780Z,322.8
2024-02-21T23:24:23.074Z,301.4
2024-02-21T23:29:54.173Z,300.1
2024-02-21T23:35:25.663Z,428.4
2024-02-21T23:40:57.323Z,345.1
2024-02-21T23:46:29.142Z,348.7
2024-02-21T23:52:00.898Z,219.7
2024-02-21T23:57:32.161Z,240.6
